sensor_id;sensor_type;location;lat;lon;timestamp;P1;P2;P0
58740;PMS7003;44512;53.046;18.604;2022-11-15T00:04:04;60;43;27
58740;PMS7003;44512;53.046;18.604;2022-11-15T00:14:33;56;42;26
58740;PMS7003;44512;53.046;18.604;2022-11-15T00:25:01;65;45;28
58740;PMS7003;44512;53.046;18.604;2022-11-15T00:35:34;56;43;28
58740;PMS7003;44512;53.046;18.604;2022-11-15T00:45:58;59;42;27
58740;PMS7003;44512;53.046;18.604;2022-11-15T00:56:26;54;42;27
58740;PMS7003;44512;53.046;18.604;2022-11-15T01:06:55;57;40;26
58740;PMS7003;44512;53.046;18.604;2022-11-15T01:17:23;55;41;25
58740;PMS7003;44512;53.046;18.604;2022-11-15T01:27:52;54;42;28
58740;PMS7003;44512;53.046;18.604;2022-11-15T01:38:21;54;40;25
58740;PMS7003;44512;53.046;18.604;2022-11-15T01:48:50;58;42;27
58740;PMS7003;44512;53.046;18.604;2022-11-15T01:59:17;54;38;25
58740;PMS7003;44512;53.046;18.604;2022-11-15T02:09:46;51;37;23
58740;PMS7003;44512;53.046;18.604;2022-11-15T02:30:44;56;39;25
58740;PMS7003;44512;53.046;18.604;2022-11-15T02:41:22;59;42;25
58740;PMS7003;44512;53.046;18.604;2022-11-15T02:51:39;54;41;25
58740;PMS7003;44512;53.046;18.604;2022-11-15T03:02:15;51;38;23
58740;PMS7003;44512;53.046;18.604;2022-11-15T03:12:39;55;41;26
58740;PMS7003;44512;53.046;18.604;2022-11-15T03:23:06;51;37;23
58740;PMS7003;44512;53.046;18.604;2022-11-15T03:33:33;54;37;23
58740;PMS7003;44512;53.046;18.604;2022-11-15T03:44:09;49;34;21
58740;PMS7003;44512;53.046;18.604;2022-11-15T03:54:30;51;34;22
58740;PMS7003;44512;53.046;18.604;2022-11-15T04:04:58;51;36;24
58740;PMS7003;44512;53.046;18.604;2022-11-15T04:15:27;47;34;21
58740;PMS7003;44512;53.046;18.604;2022-11-15T04:25:56;56;39;23
58740;PMS7003;44512;53.046;18.604;2022-11-15T04:36:24;53;40;26
58740;PMS7003;44512;53.046;18.604;2022-11-15T04:46:52;55;37;24
58740;PMS7003;44512;53.046;18.604;2022-11-15T04:57:21;49;36;23
58740;PMS7003;44512;53.046;18.604;2022-11-15T05:07:49;54;39;22
58740;PMS7003;44512;53.046;18.604;2022-11-15T05:18:18;47;37;23
58740;PMS7003;44512;53.046;18.604;2022-11-15T05:28:46;46;36;22
58740;PMS7003;44512;53.046;18.604;2022-11-15T05:39:15;45;34;21
58740;PMS7003;44512;53.046;18.604;2022-11-15T05:49:43;45;35;21
58740;PMS7003;44512;53.046;18.604;2022-11-15T06:00:12;45;34;21
58740;PMS7003;44512;53.046;18.604;2022-11-15T06:10:40;45;33;22
58740;PMS7003;44512;53.046;18.604;2022-11-15T06:21:08;48;34;21
58740;PMS7003;44512;53.046;18.604;2022-11-15T06:31:36;47;34;22
58740;PMS7003;44512;53.046;18.604;2022-11-15T06:42:05;45;32;19
58740;PMS7003;44512;53.046;18.604;2022-11-15T06:52:33;53;37;22
58740;PMS7003;44512;53.046;18.604;2022-11-15T07:03:02;42;35;22
58740;PMS7003;44512;53.046;18.604;2022-11-15T07:13:31;49;38;23
58740;PMS7003;44512;53.046;18.604;2022-11-15T07:23:59;46;32;21
58740;PMS7003;44512;53.046;18.604;2022-11-15T07:34:27;46;32;22
58740;PMS7003;44512;53.046;18.604;2022-11-15T07:44:55;46;30;19
58740;PMS7003;44512;53.046;18.604;2022-11-15T07:55:24;42;32;21
58740;PMS7003;44512;53.046;18.604;2022-11-15T08:05:52;45;33;21
58740;PMS7003;44512;53.046;18.604;2022-11-15T08:16:21;49;38;23
58740;PMS7003;44512;53.046;18.604;2022-11-15T08:26:49;43;32;22
58740;PMS7003;44512;53.046;18.604;2022-11-15T08:37:18;45;34;22
58740;PMS7003;44512;53.046;18.604;2022-11-15T08:47:46;51;36;24
58740;PMS7003;44512;53.046;18.604;2022-11-15T08:58:14;44;35;23
58740;PMS7003;44512;53.046;18.604;2022-11-15T09:08:43;36;29;20
58740;PMS7003;44512;53.046;18.604;2022-11-15T09:19:11;15;4;2
58740;PMS7003;44512;53.046;18.604;2022-11-15T09:29:40;43;35;22
58740;PMS7003;44512;53.046;18.604;2022-11-15T09:40:12;45;33;20
58740;PMS7003;44512;53.046;18.604;2022-11-15T10:01:12;50;35;23
58740;PMS7003;44512;53.046;18.604;2022-11-15T10:11:35;50;37;22
58740;PMS7003;44512;53.046;18.604;2022-11-15T10:32:30;44;33;22
58740;PMS7003;44512;53.046;18.604;2022-11-15T10:53:31;41;32;21
58740;PMS7003;44512;53.046;18.604;2022-11-15T12:06:51;42;34;21
58740;PMS7003;44512;53.046;18.604;2022-11-15T12:17:15;45;31;21
58740;PMS7003;44512;53.046;18.604;2022-11-15T12:27:45;46;33;21
58740;PMS7003;44512;53.046;18.604;2022-11-15T12:38:11;51;36;23
58740;PMS7003;44512;53.046;18.604;2022-11-15T12:59:08;43;34;23
58740;PMS7003;44512;53.046;18.604;2022-11-15T13:30:33;46;34;22
58740;PMS7003;44512;53.046;18.604;2022-11-15T14:02:02;44;34;21
58740;PMS7003;44512;53.046;18.604;2022-11-15T14:12:31;52;35;22
58740;PMS7003;44512;53.046;18.604;2022-11-15T14:23:02;53;36;22
58740;PMS7003;44512;53.046;18.604;2022-11-15T14:43:52;47;33;22
58740;PMS7003;44512;53.046;18.604;2022-11-15T14:54:21;47;36;23
58740;PMS7003;44512;53.046;18.604;2022-11-15T15:04:49;46;34;23
58740;PMS7003;44512;53.046;18.604;2022-11-15T15:15:30;45;31;21
58740;PMS7003;44512;53.046;18.604;2022-11-15T15:25:46;44;31;20
58740;PMS7003;44512;53.046;18.604;2022-11-15T15:36:16;38;30;19
58740;PMS7003;44512;53.046;18.604;2022-11-15T15:46:43;47;33;21
58740;PMS7003;44512;53.046;18.604;2022-11-15T15:57:12;44;29;19
58740;PMS7003;44512;53.046;18.604;2022-11-15T16:07:40;41;31;18
58740;PMS7003;44512;53.046;18.604;2022-11-15T16:18:08;46;33;19
58740;PMS7003;44512;53.046;18.604;2022-11-15T16:28:37;41;32;20
58740;PMS7003;44512;53.046;18.604;2022-11-15T16:39:05;46;32;21
58740;PMS7003;44512;53.046;18.604;2022-11-15T16:54:38;48;34;21
58740;PMS7003;44512;53.046;18.604;2022-11-15T17:05:07;41;32;20
58740;PMS7003;44512;53.046;18.604;2022-11-15T17:15:35;45;33;19
58740;PMS7003;44512;53.046;18.604;2022-11-15T17:26:04;48;34;21
58740;PMS7003;44512;53.046;18.604;2022-11-15T17:36:33;44;31;19
58740;PMS7003;44512;53.046;18.604;2022-11-15T17:47:00;39;31;20
58740;PMS7003;44512;53.046;18.604;2022-11-15T17:57:29;43;31;19
58740;PMS7003;44512;53.046;18.604;2022-11-15T18:07:57;50;34;20
58740;PMS7003;44512;53.046;18.604;2022-11-15T18:18:26;49;34;20
58740;PMS7003;44512;53.046;18.604;2022-11-15T18:28:55;42;33;22
58740;PMS7003;44512;53.046;18.604;2022-11-15T18:39:23;42;31;20
58740;PMS7003;44512;53.046;18.604;2022-11-15T18:49:51;41;30;17
58740;PMS7003;44512;53.046;18.604;2022-11-15T19:00:19;39;30;17
58740;PMS7003;44512;53.046;18.604;2022-11-15T19:10:48;40;27;18
58740;PMS7003;44512;53.046;18.604;2022-11-15T19:21:16;38;26;18
58740;PMS7003;44512;53.046;18.604;2022-11-15T19:31:45;34;27;17
58740;PMS7003;44512;53.046;18.604;2022-11-15T19:42:13;37;28;16
58740;PMS7003;44512;53.046;18.604;2022-11-15T19:52:41;34;26;15
58740;PMS7003;44512;53.046;18.604;2022-11-15T20:03:10;30;25;15
58740;PMS7003;44512;53.046;18.604;2022-11-15T20:13:38;25;23;15
58740;PMS7003;44512;53.046;18.604;2022-11-15T20:24:07;29;22;14
58740;PMS7003;44512;53.046;18.604;2022-11-15T20:34:35;28;21;15
58740;PMS7003;44512;53.046;18.604;2022-11-15T20:45:04;32;23;15
58740;PMS7003;44512;53.046;18.604;2022-11-15T20:55:32;26;19;13
58740;PMS7003;44512;53.046;18.604;2022-11-15T21:06:00;24;19;13
58740;PMS7003;44512;53.046;18.604;2022-11-15T21:16:29;26;22;14
58740;PMS7003;44512;53.046;18.604;2022-11-15T21:26:57;30;23;15
58740;PMS7003;44512;53.046;18.604;2022-11-15T21:37:26;27;22;14
58740;PMS7003;44512;53.046;18.604;2022-11-15T21:47:54;36;24;15
58740;PMS7003;44512;53.046;18.604;2022-11-15T21:58:22;29;23;14
58740;PMS7003;44512;53.046;18.604;2022-11-15T22:08:51;30;20;13
58740;PMS7003;44512;53.046;18.604;2022-11-15T22:19:19;33;25;17
58740;PMS7003;44512;53.046;18.604;2022-11-15T22:29:48;26;20;11
58740;PMS7003;44512;53.046;18.604;2022-11-15T22:40:16;31;23;16
58740;PMS7003;44512;53.046;18.604;2022-11-15T22:50:45;30;22;14
58740;PMS7003;44512;53.046;18.604;2022-11-15T23:01:13;31;24;16
58740;PMS7003;44512;53.046;18.604;2022-11-15T23:11:41;26;18;13
58740;PMS7003;44512;53.046;18.604;2022-11-15T23:22:10;24;22;14
58740;PMS7003;44512;53.046;18.604;2022-11-15T23:32:38;36;22;14
58740;PMS7003;44512;53.046;18.604;2022-11-15T23:43:06;24;20;13
58740;PMS7003;44512;53.046;18.604;2022-11-15T23:53:35;32;26;17
